Tuesday, June 28, 2016
16:50 UTC
  |  Log In   |  Register Free
Airport Search:

Pearson Field Airport
(KVUO)

Pearson Field Airport Diagram
No Airport Diagram Available

FAA data valid effective May 26 2016 - Jul 21 2016 (unless otherwise noted).

 
 
 
 
 
 
 
 
 
 
 
 
 
 
Current Aviation Weather for KVUO

Weather Summary


The most recent METAR observation for VUO was updated at: 12:53 UTC
METAR for KVUO is not available. Closest METAR is for KPDX
KVUO  (most recent observation was updatred at 28:15 UTC)
281553Z AUTO 33006KT 10SM OVC018 15/11 A3022 RMK AO2 SLP232 T01500106

KPDX  (3.1 nm NW)   (most recent observation was updated at 28:15 UTC)
281553Z 34006KT 10SM BKN017 16/11 A3022 RMK AO2 SLP232 T01560106

KTTD  (11.5 nm NW)   (most recent observation was updated at 28:15 UTC)
281553Z 32004KT 10SM OVC015 16/12 A3021 RMK AO2 SLP231 T01560117

TAF for KVUO is not available.
KPDX  (3.1 nm NW)   (most recent observation was updatred at 28:15 UTC)
AMD 281501Z 2815/2912 31009KT P6SM OVC015 FM281800 30005KT P6SM SCT020 FM282200 30010KT P6SM SKC FM291000 30007KT P6SM SCT015


KTTD  (11.5 nm NW)   (most recent observation was updatred at 28:11 UTC)
281140Z 2812/2912 00000KT P6SM OVC015 FM281700 28004KT P6SM SCT020 FM281900 30006KT P6SM SKC FM291000 29003KT P6SM BKN015


KHIO  (13.3 nm NE)   (most recent observation was updatred at 28:11 UTC)
281140Z 2812/2912 30003KT P6SM SKC FM281400 00000KT P6SM BKN014 FM281800 35003KT P6SM SCT020 FM290100 35011KT P6SM SKC FM290700 30004KT P6SM SKC
GlobalAir.com is loading additional information.
 Current Weather at VUO
58.0 F° (14.4 C°)

Northwest winds at 8.1 mph
Pressure:
30.21 in
Humidity:
78%
Wind:
Northwest at 8.1 mph
Dew Point:
51.1 F° (10.6 C°)
Visibility:
10.00 mi
VUO NOAA Radar




Find All Airport Services Find A Hotel Find A Rental Car Find A Golf Course Find A Restaurant $100 Hamburger



Airport Weather Forecast for KVUO

Translated METAR for KVUO (1553 UTC)
METAR:
KVUO 281553Z AUTO 33006KT 10SM OVC018 15/11 A3022 RMK AO2 SLP232 T01500106
Conditions at:
KVUO (Pearson Field, WA) observed 1553 UTC 28 June 2016
Temperature:
15°C (59°F)
Dewpoint:
11°C (51.8°F) [RH = 77]
Pressure:
30.22 inches Hg (1023.4 mb)
pressure at sea level is 232 in Hg
Winds:
from the NNW (330 degrees) at 6.9 mph (6 knots: 3.1 m/s)
Visibility:
10 mile(s)
Ceiling:
1,800 feet AGL
Clouds:
Overcast Skies at 1,800 feet AGL
Remarks:
site is un-manned
site is automated and HAS a precipitation sensor

Translated TAF for KPDX (Portland Intl, OR) (1501 UTC)
TAF text:
KPDX 281501Z 2815/2912 31009KT P6SM OVC015
Forecast period:
Tuesday Jun 28 2016 15:00 UTC - Wednesday Jun 29 2016 12:00 UTC
Forecast type:
FROM: standard forecast or significant change
Winds:
from the NW (310 degrees) at 10.4 mph (9 knots: 4.6 m/s)
Visibility:
6 or more mile(s) (9.7+ km)
Ceiling:
1,500 feet AGL
Clouds:
Overcast Skies at 1,500 feet AGL
Weather:
no significant weather observed at this time
TAF text:
FM281800 30005KT P6SM SCT020
Forecast period:
Tuesday Jun 28 2016 18:00 UTC - Tuesday Jun 28 2016 22:00 UTC
Forecast type:
FROM: standard forecast or significant change
Winds:
from the WNW (300 degrees) at 5.8 mph (5 knots: 2.6 m/s)
Visibility:
6 or more mile(s) (9.7+ km)
Ceiling:
at least 12,000 feet AGL
Clouds:
Scattered Clouds at 2,000 feet AGL
Weather:
no significant weather observed at this time
TAF text:
FM282200 30010KT P6SM SKC
Forecast period:
Tuesday Jun 28 2016 22:00 UTC - Wednesday Jun 29 2016 10:00 UTC
Forecast type:
FROM: standard forecast or significant change
Winds:
from the WNW (300 degrees) at 11.5 mph (10 knots: 5.1 m/s)
Visibility:
6 or more mile(s) (9.7+ km)
Ceiling:
at least 12,000 feet AGL
Clouds:
Clear Skies
Weather:
no significant weather observed at this time
TAF text:
FM291000 30007KT P6SM SCT015
Forecast period:
Wednesday Jun 29 2016 10:00 UTC - Wednesday Jun 29 2016 12:00 UTC
Forecast type:
FROM: standard forecast or significant change
Winds:
from the WNW (300 degrees) at 8.1 mph (7 knots: 3.6 m/s)
Visibility:
6 or more mile(s) (9.7+ km)
Ceiling:
at least 12,000 feet AGL
Clouds:
Scattered Clouds at 1,500 feet AGL
Weather:
no significant weather observed at this time
FBO's on the Field
FBO Company Facility Photos Services Transportation Aviation Fuel Prices: Prices include tax
Catering Weather Repair Courtesy Rental Type 100LL JetA JetA+ MOGAS 8087
 
Aero Maintenance Inc

This FBO has not yet been rated
FS:Epic
Last Updated: Jun-13
Login to update fuel prices
SS:
Contact Aero Maintenance IncMore FBO Information
 
Add another FBO Facility Photos Catering Weather Repair Courtesy Rental Type 100LL JetA JetA+ MOGAS 8087
Services Transportation Aviation Fuel Prices: Prices include tax


model-print
model-print
model-print
model-print